createdAt,value
2022-11-06T00:00:27.125Z,91.83
2022-11-06T00:01:30.160Z,92.18
2022-11-06T00:02:32.245Z,92.14
2022-11-06T00:03:35.569Z,92.08
2022-11-06T00:04:37.558Z,91.37
2022-11-06T00:06:00.220Z,91.57
2022-11-06T00:07:05.954Z,91.49
2022-11-06T00:08:08.310Z,91.84
2022-11-06T00:09:14.279Z,91.27
2022-11-06T00:10:17.058Z,91.17
2022-11-06T00:11:20.143Z,91.16
2022-11-06T00:12:22.258Z,90.87
2022-11-06T00:13:25.449Z,91.10
2022-11-06T00:14:27.533Z,90.82
2022-11-06T00:15:31.337Z,90.90
2022-11-06T00:16:33.980Z,90.68
2022-11-06T00:17:37.658Z,90.81
2022-11-06T00:18:41.636Z,90.81
2022-11-06T00:19:43.703Z,90.71
2022-11-06T00:20:46.951Z,91.05
2022-11-06T00:21:49.192Z,90.85
2022-11-06T00:22:53.708Z,90.99
2022-11-06T00:23:58.641Z,90.79
2022-11-06T00:25:01.976Z,90.51
2022-11-06T00:26:06.450Z,90.48
2022-11-06T00:27:09.519Z,90.30
2022-11-06T00:28:11.978Z,90.66
2022-11-06T00:29:16.218Z,90.66
2022-11-06T00:30:20.678Z,90.71
2022-11-06T00:31:26.074Z,90.52
2022-11-06T00:32:28.142Z,90.77
2022-11-06T00:33:31.479Z,90.52
2022-11-06T00:34:33.592Z,90.91
2022-11-06T00:35:39.023Z,90.65
2022-11-06T00:36:41.129Z,90.99
2022-11-06T00:37:48.957Z,90.70
2022-11-06T00:38:53.965Z,90.91
2022-11-06T00:39:57.136Z,91.08
2022-11-06T00:41:05.545Z,91.05
2022-11-06T00:42:08.577Z,90.94
2022-11-06T00:43:14.750Z,91.10
2022-11-06T00:44:27.678Z,91.20
2022-11-06T00:45:32.973Z,90.93
2022-11-06T00:46:42.046Z,90.90
2022-11-06T00:47:47.700Z,91.03
2022-11-06T00:48:53.320Z,91.10
2022-11-06T00:49:55.409Z,91.18
2022-11-06T00:51:03.812Z,91.10
2022-11-06T00:52:05.965Z,90.96
2022-11-06T00:53:09.047Z,91.42
2022-11-06T00:54:15.705Z,91.24
2022-11-06T00:55:19.009Z,91.21
2022-11-06T00:56:21.354Z,91.39
2022-11-06T00:57:24.516Z,91.38
2022-11-06T00:58:28.126Z,91.14
2022-11-06T00:59:31.210Z,91.50
2022-11-06T01:00:33.265Z,91.65
2022-11-06T01:01:39.012Z,91.47
2022-11-06T01:02:41.357Z,91.17
2022-11-06T01:03:45.870Z,91.43
2022-11-06T01:04:47.925Z,91.18
2022-11-06T01:05:51.031Z,91.57
2022-11-06T01:06:56.422Z,91.20
2022-11-06T01:08:00.203Z,91.54
2022-11-06T01:09:02.501Z,91.53
2022-11-06T01:10:07.990Z,91.60
2022-11-06T01:11:12.755Z,91.24
2022-11-06T01:12:16.080Z,91.45
2022-11-06T01:13:18.280Z,91.79
2022-11-06T01:14:22.871Z,91.48
2022-11-06T01:15:24.976Z,91.69
2022-11-06T01:16:29.171Z,91.74
2022-11-06T01:17:32.269Z,91.89
2022-11-06T01:18:35.064Z,92.20
2022-11-06T01:19:38.305Z,91.90
2022-11-06T01:20:40.392Z,92.00
2022-11-06T01:21:48.374Z,92.52
2022-11-06T01:22:50.475Z,92.61
2022-11-06T01:23:55.638Z,92.29
2022-11-06T01:24:57.843Z,92.42
2022-11-06T01:26:04.179Z,92.63
2022-11-06T01:28:31.396Z,93.32
2022-11-06T01:29:33.867Z,93.43
2022-11-06T01:30:38.073Z,93.03
2022-11-06T01:31:40.960Z,93.03
2022-11-06T01:32:44.025Z,93.57
2022-11-06T01:33:46.390Z,93.48
2022-11-06T01:34:50.695Z,93.56
2022-11-06T01:35:52.876Z,93.55
2022-11-06T01:36:55.938Z,93.93
2022-11-06T01:37:58.157Z,93.90
2022-11-06T01:39:06.515Z,93.88
2022-11-06T01:40:09.469Z,93.67
2022-11-06T01:41:15.704Z,94.08
2022-11-06T01:42:20.569Z,94.17
2022-11-06T01:43:26.202Z,94.00
2022-11-06T01:45:07.870Z,94.09
2022-11-06T01:46:11.346Z,94.30
2022-11-06T01:47:25.198Z,94.19
2022-11-06T01:48:29.608Z,93.89
2022-11-06T01:49:36.122Z,93.99
2022-11-06T01:50:40.129Z,93.72
2022-11-06T01:51:47.129Z,93.89
2022-11-06T01:52:51.953Z,93.97
2022-11-06T01:53:54.585Z,93.93
2022-11-06T01:55:00.390Z,93.71
2022-11-06T01:56:06.798Z,93.83
2022-11-06T01:57:11.885Z,94.07
2022-11-06T01:58:19.674Z,93.94
2022-11-06T01:59:26.360Z,93.90
2022-11-06T02:00:31.207Z,93.51
2022-11-06T02:01:33.985Z,93.72
2022-11-06T02:02:38.232Z,93.82
2022-11-06T02:03:47.156Z,93.71
2022-11-06T02:04:50.089Z,93.65
2022-11-06T02:05:54.508Z,93.16
2022-11-06T02:06:58.450Z,93.44
2022-11-06T02:08:02.407Z,93.26
2022-11-06T02:09:11.220Z,93.44
2022-11-06T02:10:14.269Z,93.52
2022-11-06T02:11:17.396Z,93.03
2022-11-06T02:12:39.122Z,93.41
2022-11-06T02:13:55.208Z,93.32
2022-11-06T02:15:02.196Z,93.31
2022-11-06T02:16:16.252Z,93.07
2022-11-06T02:17:36.729Z,92.99
2022-11-06T02:18:51.983Z,92.99
2022-11-06T02:20:03.463Z,92.92
2022-11-06T02:21:27.596Z,93.04
2022-11-06T02:22:48.716Z,92.85
2022-11-06T02:24:29.658Z,92.58
2022-11-06T02:25:44.875Z,93.06
2022-11-06T02:27:04.304Z,92.73
2022-11-06T02:28:12.991Z,92.79
2022-11-06T02:29:20.319Z,92.70
2022-11-06T02:30:23.396Z,92.46
2022-11-06T02:31:28.522Z,92.33
2022-11-06T02:32:37.691Z,92.61
2022-11-06T02:33:48.578Z,92.51
2022-11-06T02:34:53.418Z,92.77
2022-11-06T02:36:01.715Z,92.75
2022-11-06T02:37:08.030Z,92.54
2022-11-06T02:38:14.380Z,92.61
2022-11-06T02:39:19.733Z,92.68
2022-11-06T02:40:24.468Z,92.48
2022-11-06T02:41:32.039Z,92.46
2022-11-06T02:42:41.138Z,92.72
2022-11-06T02:43:45.813Z,92.61
2022-11-06T02:44:53.923Z,92.81
2022-11-06T02:45:59.131Z,92.67
2022-11-06T02:47:06.145Z,92.54
2022-11-06T02:48:10.827Z,92.75
2022-11-06T02:49:18.062Z,93.03
2022-11-06T02:50:24.557Z,93.15
2022-11-06T02:51:31.621Z,92.92
2022-11-06T02:52:39.009Z,93.02
2022-11-06T02:53:45.672Z,92.80
2022-11-06T02:54:55.509Z,92.89
2022-11-06T02:56:04.015Z,92.74
2022-11-06T02:57:09.051Z,92.99
2022-11-06T02:58:17.633Z,93.06
2022-11-06T02:59:23.721Z,92.98
2022-11-06T03:00:28.293Z,93.17
2022-11-06T03:01:35.503Z,92.88
2022-11-06T03:02:42.521Z,93.40
2022-11-06T03:03:51.937Z,93.31
2022-11-06T03:05:00.503Z,93.50
2022-11-06T03:06:08.425Z,93.08
2022-11-06T03:07:16.164Z,93.16
2022-11-06T03:08:24.739Z,93.53
2022-11-06T03:09:29.124Z,93.28
2022-11-06T03:10:37.814Z,93.59
2022-11-06T03:11:40.062Z,93.52
2022-11-06T03:12:52.152Z,93.42
2022-11-06T03:14:00.270Z,93.44
2022-11-06T03:15:11.822Z,93.49
2022-11-06T03:16:24.556Z,93.47
2022-11-06T03:17:38.950Z,93.12
2022-11-06T03:18:46.507Z,93.45
2022-11-06T03:19:55.196Z,92.98
2022-11-06T03:21:01.873Z,92.92
2022-11-06T03:22:11.031Z,93.37
2022-11-06T03:23:18.869Z,93.17
2022-11-06T03:24:31.230Z,93.08
2022-11-06T03:25:43.457Z,93.37
2022-11-06T03:26:49.786Z,92.96
2022-11-06T03:28:00.695Z,92.83
2022-11-06T03:29:13.590Z,92.84
2022-11-06T03:30:16.951Z,93.03
2022-11-06T03:31:28.095Z,92.86
2022-11-06T03:32:35.335Z,93.04
2022-11-06T03:33:43.748Z,92.55
2022-11-06T03:34:53.159Z,92.71
2022-11-06T03:36:02.441Z,92.88
2022-11-06T03:37:09.819Z,92.71
2022-11-06T03:38:19.669Z,92.75
2022-11-06T03:39:28.113Z,92.79
2022-11-06T03:40:35.248Z,92.39
2022-11-06T03:41:42.426Z,92.44
2022-11-06T03:42:46.779Z,92.60
2022-11-06T03:43:52.939Z,92.62
2022-11-06T03:44:59.135Z,92.25
2022-11-06T03:46:04.621Z,92.40
2022-11-06T03:47:13.436Z,92.54
2022-11-06T03:48:22.583Z,92.49
2022-11-06T03:49:31.843Z,92.25
2022-11-06T03:50:39.314Z,92.49
2022-11-06T03:51:47.644Z,92.19
2022-11-06T03:52:56.694Z,92.15
2022-11-06T03:54:02.637Z,92.45
2022-11-06T03:55:08.702Z,92.29
2022-11-06T03:56:16.567Z,92.41
2022-11-06T03:57:24.721Z,92.55
2022-11-06T03:58:33.098Z,92.58
2022-11-06T03:59:42.910Z,92.18
2022-11-06T04:00:47.621Z,92.35
2022-11-06T04:01:55.105Z,91.90
2022-11-06T04:03:05.757Z,92.14
2022-11-06T04:04:14.730Z,92.29
2022-11-06T04:05:21.838Z,92.16
2022-11-06T04:06:28.761Z,91.84
2022-11-06T04:07:35.605Z,91.73
2022-11-06T04:08:57.686Z,91.78
2022-11-06T04:10:22.441Z,91.87
2022-11-06T04:11:46.584Z,92.11
2022-11-06T04:13:10.093Z,91.94
2022-11-06T04:14:16.695Z,91.95
2022-11-06T04:15:22.643Z,92.17
2022-11-06T04:16:29.661Z,92.30
2022-11-06T04:17:33.423Z,92.45
2022-11-06T04:18:35.511Z,92.39
2022-11-06T04:19:39.269Z,92.90
2022-11-06T04:21:10.455Z,92.74
2022-11-06T04:22:24.797Z,93.01
2022-11-06T04:23:38.044Z,93.16
2022-11-06T04:25:13.941Z,93.46
2022-11-06T04:26:37.975Z,93.68
2022-11-06T04:27:55.044Z,93.46
2022-11-06T04:29:08.200Z,93.48
2022-11-06T04:30:12.386Z,93.70
2022-11-06T04:31:26.712Z,93.69
2022-11-06T04:32:40.746Z,93.62
2022-11-06T04:33:53.132Z,93.68
2022-11-06T04:35:03.349Z,93.53
2022-11-06T04:36:14.097Z,93.47
2022-11-06T04:37:22.508Z,93.53
2022-11-06T04:38:31.871Z,93.73
2022-11-06T04:39:42.303Z,93.24
2022-11-06T04:40:53.550Z,93.51
2022-11-06T04:42:02.352Z,93.66
2022-11-06T04:43:11.683Z,93.65
2022-11-06T04:44:18.665Z,93.26
2022-11-06T04:45:24.926Z,93.36
2022-11-06T04:46:33.820Z,93.76
2022-11-06T04:47:40.003Z,93.56
2022-11-06T04:48:43.625Z,93.30
2022-11-06T04:49:48.571Z,93.23
2022-11-06T04:50:54.161Z,93.26
2022-11-06T04:51:59.043Z,93.29
2022-11-06T04:53:02.852Z,93.17
2022-11-06T04:54:08.135Z,93.31
2022-11-06T04:55:10.238Z,93.44
2022-11-06T04:56:20.125Z,93.47
2022-11-06T04:57:24.007Z,93.54
2022-11-06T04:58:27.122Z,93.17
2022-11-06T04:59:33.283Z,93.19
2022-11-06T05:00:36.699Z,93.26
2022-11-06T05:01:38.832Z,93.44
2022-11-06T05:02:43.487Z,93.33
2022-11-06T05:03:45.690Z,93.19
2022-11-06T05:04:48.951Z,93.36
2022-11-06T05:05:50.974Z,93.42
2022-11-06T05:06:53.993Z,93.46
2022-11-06T05:07:56.069Z,93.12
2022-11-06T05:08:59.378Z,93.46
2022-11-06T05:10:01.402Z,93.32
2022-11-06T05:11:04.408Z,93.35
2022-11-06T05:12:07.936Z,93.35
2022-11-06T05:13:10.517Z,93.13
2022-11-06T05:14:13.849Z,93.26
2022-11-06T05:15:16.038Z,93.42
2022-11-06T05:16:19.089Z,93.51
2022-11-06T05:17:21.099Z,93.18
2022-11-06T05:18:26.083Z,92.98
2022-11-06T05:19:28.060Z,93.06
2022-11-06T05:20:31.706Z,93.08
2022-11-06T05:21:52.113Z,92.95
2022-11-06T05:23:00.746Z,92.78
2022-11-06T05:24:04.268Z,93.02
2022-11-06T05:25:06.902Z,92.87
2022-11-06T05:26:10.298Z,93.15
2022-11-06T05:27:12.318Z,93.15
2022-11-06T05:28:15.614Z,92.69
2022-11-06T05:29:17.842Z,92.88
2022-11-06T05:30:20.889Z,92.69
2022-11-06T05:31:23.865Z,92.89
2022-11-06T05:32:26.867Z,92.40
2022-11-06T05:33:31.218Z,92.70
2022-11-06T05:34:34.280Z,92.72
2022-11-06T05:35:36.475Z,92.44
2022-11-06T05:36:39.547Z,92.44
2022-11-06T05:37:41.586Z,92.78
2022-11-06T05:38:44.717Z,92.47
2022-11-06T05:39:46.708Z,92.62
2022-11-06T05:40:49.679Z,92.78
2022-11-06T05:41:51.738Z,92.55
2022-11-06T05:42:55.141Z,92.15
2022-11-06T05:43:57.585Z,92.09
2022-11-06T05:45:00.557Z,92.50
2022-11-06T05:46:02.716Z,92.24
2022-11-06T05:47:05.786Z,91.81
2022-11-06T05:48:07.782Z,91.95
2022-11-06T05:49:12.248Z,92.27
2022-11-06T05:50:14.245Z,91.94
2022-11-06T05:51:17.269Z,92.08
2022-11-06T05:52:19.273Z,92.15
2022-11-06T05:53:22.407Z,92.30
2022-11-06T05:54:24.586Z,92.44
2022-11-06T05:55:27.652Z,92.27
2022-11-06T05:56:29.636Z,92.63
2022-11-06T05:57:32.737Z,92.91
2022-11-06T05:58:34.774Z,93.08
2022-11-06T05:59:37.867Z,92.89
2022-11-06T06:00:41.060Z,93.55
2022-11-06T06:01:44.196Z,93.81
2022-11-06T06:02:47.402Z,93.71
2022-11-06T06:03:49.579Z,93.94
2022-11-06T06:04:53.974Z,94.47
2022-11-06T06:05:56.113Z,94.30
2022-11-06T06:06:59.175Z,94.42
2022-11-06T06:08:01.205Z,94.75
2022-11-06T06:09:04.275Z,95.22
2022-11-06T06:10:07.662Z,95.61
2022-11-06T06:11:10.660Z,96.24
2022-11-06T06:12:14.510Z,96.00
2022-11-06T06:13:16.776Z,96.37
2022-11-06T06:14:20.214Z,97.05
2022-11-06T06:15:23.311Z,96.79
2022-11-06T06:16:25.367Z,96.51
2022-11-06T06:17:28.662Z,96.79
2022-11-06T06:18:30.775Z,96.74
2022-11-06T06:19:33.913Z,96.84
2022-11-06T06:20:37.781Z,97.51
2022-11-06T06:21:41.205Z,97.52
2022-11-06T06:22:44.265Z,97.40
2022-11-06T06:23:47.286Z,97.18
2022-11-06T06:24:50.345Z,97.36
2022-11-06T06:25:52.486Z,98.10
2022-11-06T06:26:55.476Z,97.88
2022-11-06T06:27:57.898Z,97.89
2022-11-06T06:29:02.187Z,98.30
2022-11-06T06:30:05.355Z,98.25
2022-11-06T06:31:09.813Z,98.32
2022-11-06T06:32:11.935Z,97.82
2022-11-06T06:33:15.002Z,98.06
2022-11-06T06:34:18.094Z,98.34
2022-11-06T06:35:20.430Z,98.54
2022-11-06T06:36:24.927Z,98.52
2022-11-06T06:37:26.942Z,98.47
2022-11-06T06:38:29.963Z,98.19
2022-11-06T06:39:32.986Z,98.01
2022-11-06T06:40:35.040Z,98.24
2022-11-06T06:41:38.517Z,98.07
2022-11-06T06:42:40.558Z,98.29
2022-11-06T06:43:43.657Z,98.51
2022-11-06T06:44:45.983Z,98.45
2022-11-06T06:45:49.400Z,98.46
2022-11-06T06:46:52.403Z,98.42
2022-11-06T06:47:54.430Z,98.29
2022-11-06T06:48:57.438Z,98.00
2022-11-06T06:49:59.435Z,97.91
2022-11-06T06:51:04.862Z,97.85
2022-11-06T06:52:08.684Z,98.06
2022-11-06T06:53:13.366Z,97.66
2022-11-06T06:54:16.533Z,97.92
2022-11-06T06:55:18.518Z,97.58
2022-11-06T06:56:21.649Z,97.42
2022-11-06T06:57:23.753Z,97.65
2022-11-06T06:58:26.860Z,97.32
2022-11-06T06:59:29.174Z,97.08
2022-11-06T07:00:32.200Z,97.51
2022-11-06T07:01:34.677Z,97.29
2022-11-06T07:02:37.760Z,97.37
2022-11-06T07:03:41.019Z,97.18
2022-11-06T07:04:43.002Z,96.69
2022-11-06T07:05:46.835Z,96.73
2022-11-06T07:06:48.848Z,96.57
2022-11-06T07:07:53.207Z,96.09
2022-11-06T07:08:55.786Z,96.33
2022-11-06T07:09:58.779Z,96.53
2022-11-06T07:11:01.820Z,96.33
2022-11-06T07:12:05.291Z,96.26
2022-11-06T07:13:07.359Z,95.97
2022-11-06T07:14:11.268Z,95.77
2022-11-06T07:15:13.502Z,96.16
2022-11-06T07:16:16.561Z,96.02
2022-11-06T07:17:18.806Z,96.43
2022-11-06T07:18:22.215Z,96.43
2022-11-06T07:19:24.290Z,96.39
2022-11-06T07:20:27.276Z,96.42
2022-11-06T07:21:29.274Z,96.24
2022-11-06T07:22:36.940Z,96.59
2022-11-06T07:23:42.110Z,96.46
2022-11-06T07:24:44.139Z,96.88
2022-11-06T07:25:53.687Z,96.96
2022-11-06T07:26:55.723Z,96.95
2022-11-06T07:28:02.882Z,97.07
2022-11-06T07:29:06.122Z,96.59
2022-11-06T07:30:09.158Z,97.00
2022-11-06T07:31:12.984Z,97.00
2022-11-06T07:32:15.197Z,96.93
2022-11-06T07:33:18.387Z,96.85
2022-11-06T07:34:20.447Z,96.61
2022-11-06T07:35:23.582Z,96.82
2022-11-06T07:36:26.686Z,96.43
2022-11-06T07:37:28.808Z,96.59
2022-11-06T07:38:31.837Z,96.46
2022-11-06T07:39:37.276Z,96.47
2022-11-06T07:40:40.396Z,96.43
2022-11-06T07:41:42.439Z,96.58
2022-11-06T07:42:45.513Z,96.36
2022-11-06T07:43:50.710Z,96.34
2022-11-06T07:44:55.482Z,96.02
2022-11-06T07:45:59.600Z,96.08
2022-11-06T07:47:02.646Z,95.86
2022-11-06T07:48:06.074Z,95.50
2022-11-06T07:49:10.342Z,95.38
2022-11-06T07:50:12.362Z,95.34
2022-11-06T07:51:15.396Z,95.38
2022-11-06T07:52:17.433Z,95.33
2022-11-06T07:53:21.964Z,95.36
2022-11-06T07:54:23.986Z,95.06
2022-11-06T07:55:28.411Z,95.07
2022-11-06T07:56:31.426Z,95.07
2022-11-06T07:57:36.188Z,94.84
2022-11-06T07:58:39.621Z,94.96
2022-11-06T07:59:42.564Z,94.86
2022-11-06T08:00:48.414Z,94.78
2022-11-06T08:01:51.764Z,95.03
2022-11-06T08:02:54.014Z,95.21
2022-11-06T08:03:57.348Z,94.94
2022-11-06T08:04:59.444Z,94.57
2022-11-06T08:06:05.450Z,94.82
2022-11-06T08:07:08.667Z,94.59
2022-11-06T08:08:11.512Z,94.34
2022-11-06T08:09:14.820Z,94.64
2022-11-06T08:10:17.796Z,94.26
2022-11-06T08:11:22.223Z,94.32
2022-11-06T08:12:24.273Z,93.87
2022-11-06T08:13:27.406Z,94.11
2022-11-06T08:14:29.458Z,93.82
2022-11-06T08:15:32.502Z,93.68
2022-11-06T08:16:35.519Z,93.52
2022-11-06T08:17:37.624Z,93.17
2022-11-06T08:18:41.488Z,92.81
2022-11-06T08:19:43.523Z,92.78
2022-11-06T08:20:46.564Z,92.96
2022-11-06T08:21:49.761Z,93.11
2022-11-06T08:22:52.941Z,92.83
2022-11-06T08:23:55.986Z,92.87
2022-11-06T08:24:57.948Z,93.29
2022-11-06T08:26:02.738Z,93.02
2022-11-06T08:27:06.150Z,93.05
2022-11-06T08:28:10.128Z,93.21
2022-11-06T08:29:13.266Z,92.83
2022-11-06T08:30:15.422Z,92.97
2022-11-06T08:31:18.648Z,92.98
2022-11-06T08:32:20.845Z,93.25
2022-11-06T08:33:25.531Z,93.18
2022-11-06T08:34:28.609Z,93.46
2022-11-06T08:35:31.040Z,93.73
2022-11-06T08:36:38.208Z,93.86
2022-11-06T08:37:41.328Z,94.17
2022-11-06T08:38:43.353Z,94.10
2022-11-06T08:39:46.453Z,94.38
2022-11-06T08:40:53.360Z,94.59
2022-11-06T08:41:56.769Z,94.81
2022-11-06T08:43:00.820Z,94.71
2022-11-06T08:44:03.827Z,94.56
2022-11-06T08:45:08.105Z,95.00
2022-11-06T08:46:11.984Z,94.65
2022-11-06T08:47:14.095Z,94.67
2022-11-06T08:48:17.276Z,94.10
2022-11-06T08:49:19.547Z,94.18
2022-11-06T08:50:22.551Z,94.20
2022-11-06T08:51:25.628Z,93.34
2022-11-06T08:52:32.795Z,93.95
2022-11-06T08:53:37.071Z,93.33
2022-11-06T08:54:40.233Z,92.48
2022-11-06T08:55:42.422Z,92.04
2022-11-06T08:56:45.433Z,91.05
2022-11-06T08:57:48.429Z,91.02
2022-11-06T08:58:55.607Z,90.56
2022-11-06T08:59:58.214Z,91.17
2022-11-06T09:01:01.385Z,90.90
2022-11-06T09:02:03.595Z,90.46
2022-11-06T09:03:09.095Z,90.56
2022-11-06T09:04:11.142Z,90.61
2022-11-06T09:05:14.186Z,90.25
2022-11-06T09:06:17.579Z,89.92
2022-11-06T09:07:20.623Z,89.95
2022-11-06T09:08:24.206Z,89.98
2022-11-06T09:09:31.952Z,90.06
2022-11-06T09:10:34.721Z,89.22
2022-11-06T09:11:37.785Z,89.60
2022-11-06T09:12:39.870Z,89.34
2022-11-06T09:13:42.903Z,89.17
2022-11-06T09:14:47.307Z,89.00
2022-11-06T09:15:49.317Z,89.15
2022-11-06T09:16:52.412Z,88.89
2022-11-06T09:17:55.447Z,89.14
2022-11-06T09:18:58.904Z,88.60
2022-11-06T09:20:00.919Z,88.79
2022-11-06T09:21:04.034Z,89.00
2022-11-06T09:22:08.133Z,88.98
2022-11-06T09:23:11.981Z,88.74
2022-11-06T09:24:14.232Z,89.05
2022-11-06T09:25:18.027Z,88.95
2022-11-06T09:26:21.047Z,88.68
2022-11-06T09:27:23.060Z,88.72
2022-11-06T09:28:26.093Z,88.82
2022-11-06T09:29:28.221Z,88.63
2022-11-06T09:30:33.105Z,88.71
2022-11-06T09:31:36.285Z,88.82
2022-11-06T09:32:38.406Z,88.72
2022-11-06T09:33:41.379Z,88.78
2022-11-06T09:34:43.450Z,88.49
2022-11-06T09:35:46.530Z,88.12
2022-11-06T09:36:48.624Z,88.23
2022-11-06T09:37:51.712Z,88.09
2022-11-06T09:38:54.741Z,88.20
2022-11-06T09:39:59.417Z,88.25
2022-11-06T09:41:07.086Z,88.32
2022-11-06T09:42:18.268Z,88.22
2022-11-06T09:44:03.505Z,88.21
2022-11-06T09:45:03.362Z,88.43
2022-11-06T09:46:17.285Z,88.00
2022-11-06T09:47:23.992Z,88.04
2022-11-06T09:48:31.876Z,88.10
2022-11-06T09:49:39.454Z,87.78
2022-11-06T09:50:48.327Z,87.58
2022-11-06T09:51:55.293Z,87.70
2022-11-06T09:53:06.477Z,87.83
2022-11-06T09:54:16.499Z,87.52
2022-11-06T09:55:22.412Z,87.46
2022-11-06T09:56:29.158Z,87.41
2022-11-06T09:57:37.764Z,87.29
2022-11-06T09:58:44.949Z,86.78
2022-11-06T09:59:49.097Z,86.43
2022-11-06T10:00:54.483Z,86.45
2022-11-06T10:02:01.616Z,86.36
2022-11-06T10:03:08.328Z,86.14
2022-11-06T10:04:27.642Z,86.03
2022-11-06T10:05:34.764Z,85.55
2022-11-06T10:06:39.086Z,85.62
2022-11-06T10:07:43.820Z,85.01
2022-11-06T10:08:47.328Z,84.85
2022-11-06T10:09:49.822Z,85.00
2022-11-06T10:11:03.812Z,84.60
2022-11-06T10:12:17.621Z,84.61
2022-11-06T10:13:37.990Z,84.09
2022-11-06T10:14:50.670Z,83.98
2022-11-06T10:16:02.082Z,83.42
2022-11-06T10:17:20.441Z,83.53
2022-11-06T10:18:35.419Z,83.71
2022-11-06T10:19:42.407Z,83.29
2022-11-06T10:20:52.294Z,83.24
2022-11-06T10:22:04.025Z,82.78
2022-11-06T10:23:17.733Z,82.86
2022-11-06T10:24:23.999Z,82.51
2022-11-06T10:25:44.729Z,82.27
2022-11-06T10:26:53.995Z,81.95
2022-11-06T10:28:02.196Z,81.91
2022-11-06T10:29:32.529Z,81.88
2022-11-06T10:30:42.274Z,81.65
2022-11-06T10:31:55.055Z,82.19
2022-11-06T10:33:12.215Z,81.61
2022-11-06T10:34:18.258Z,81.72
2022-11-06T10:35:26.000Z,81.52
2022-11-06T10:36:35.875Z,81.29
2022-11-06T10:37:45.844Z,81.52
2022-11-06T10:38:50.786Z,81.44
2022-11-06T10:39:55.475Z,81.62
2022-11-06T10:40:59.850Z,81.39
2022-11-06T10:42:07.579Z,81.73
2022-11-06T10:43:31.841Z,81.54
2022-11-06T10:44:39.078Z,81.50
2022-11-06T10:45:46.658Z,81.64
2022-11-06T10:46:52.996Z,81.49
2022-11-06T10:48:00.236Z,81.36
2022-11-06T10:49:12.934Z,81.56
2022-11-06T10:50:18.339Z,81.06
2022-11-06T10:51:36.729Z,81.10
2022-11-06T10:52:55.626Z,80.99
2022-11-06T10:54:12.999Z,81.17
2022-11-06T10:56:11.008Z,80.79
2022-11-06T10:57:24.455Z,80.96
2022-11-06T10:58:31.538Z,80.80
2022-11-06T10:59:35.186Z,80.57
2022-11-06T11:00:38.222Z,80.76
2022-11-06T11:01:41.392Z,81.34
2022-11-06T11:02:48.225Z,81.54
2022-11-06T11:03:51.975Z,81.55
2022-11-06T11:04:58.036Z,81.34
2022-11-06T11:06:01.891Z,81.41
2022-11-06T11:07:21.369Z,80.88
2022-11-06T11:08:40.403Z,80.55
2022-11-06T11:09:42.653Z,80.88
2022-11-06T11:10:56.119Z,80.62
2022-11-06T11:12:22.278Z,80.23
2022-11-06T11:13:25.409Z,79.75
2022-11-06T11:14:31.187Z,79.31
2022-11-06T11:15:39.595Z,79.50
2022-11-06T11:16:46.025Z,79.12
2022-11-06T11:18:16.624Z,78.77
2022-11-06T11:19:34.478Z,78.69
2022-11-06T11:20:42.112Z,78.57
2022-11-06T11:21:54.571Z,78.09
2022-11-06T11:23:07.197Z,77.74
2022-11-06T11:24:11.769Z,77.54
2022-11-06T11:25:26.764Z,77.62
2022-11-06T11:26:32.379Z,77.35
2022-11-06T11:27:45.937Z,77.16
2022-11-06T11:28:54.553Z,76.65
2022-11-06T11:29:57.904Z,76.85
2022-11-06T11:31:06.654Z,76.39
2022-11-06T11:32:10.110Z,75.99
2022-11-06T11:33:13.846Z,75.72
2022-11-06T11:34:20.089Z,75.67
2022-11-06T11:35:28.235Z,75.59
2022-11-06T11:36:55.278Z,75.17
2022-11-06T11:38:08.029Z,75.20
2022-11-06T11:39:11.749Z,74.87
2022-11-06T11:40:36.983Z,74.62
2022-11-06T11:41:39.072Z,74.54
2022-11-06T11:42:42.458Z,74.43
2022-11-06T11:43:55.732Z,74.71
2022-11-06T11:45:17.832Z,74.36
2022-11-06T11:46:20.840Z,74.56
2022-11-06T11:47:25.209Z,74.57
2022-11-06T11:48:27.455Z,74.66
2022-11-06T11:49:32.749Z,74.58
2022-11-06T11:50:34.938Z,74.96
2022-11-06T11:51:39.579Z,74.95
2022-11-06T11:52:44.270Z,75.01
2022-11-06T11:53:47.425Z,75.32
2022-11-06T11:54:53.977Z,75.25
2022-11-06T11:55:56.920Z,75.22
2022-11-06T11:57:05.836Z,74.85
2022-11-06T11:58:20.780Z,74.69
2022-11-06T11:59:27.126Z,74.93
2022-11-06T12:00:29.891Z,74.47
2022-11-06T12:01:38.258Z,74.77
2022-11-06T12:02:43.519Z,74.82
2022-11-06T12:03:52.711Z,75.15
2022-11-06T12:04:59.233Z,75.13
2022-11-06T12:06:07.369Z,74.96
2022-11-06T12:07:23.603Z,75.25
2022-11-06T12:08:28.132Z,75.21
2022-11-06T12:09:34.053Z,75.21
2022-11-06T12:10:39.248Z,75.23
2022-11-06T12:11:43.351Z,75.73
2022-11-06T12:12:50.694Z,75.85
2022-11-06T12:14:19.197Z,75.87
2022-11-06T12:15:25.883Z,75.94
2022-11-06T12:16:28.877Z,75.70
2022-11-06T12:17:33.913Z,75.92
2022-11-06T12:18:38.651Z,75.89
2022-11-06T12:19:46.212Z,75.88
2022-11-06T12:20:53.760Z,76.15
2022-11-06T12:22:00.231Z,76.10
2022-11-06T12:23:05.535Z,76.06
2022-11-06T12:24:16.038Z,76.09
2022-11-06T12:25:26.576Z,76.33
2022-11-06T12:26:34.522Z,76.19
2022-11-06T12:27:42.050Z,76.00
2022-11-06T12:28:47.934Z,76.01
2022-11-06T12:29:57.161Z,75.99
2022-11-06T12:31:05.577Z,76.03
2022-11-06T12:32:15.962Z,76.11
2022-11-06T12:33:27.353Z,75.88
2022-11-06T12:34:35.568Z,75.71
2022-11-06T12:35:42.447Z,75.93
2022-11-06T12:36:50.153Z,75.96
2022-11-06T12:38:03.453Z,75.95
2022-11-06T12:39:15.824Z,76.05
2022-11-06T12:40:25.049Z,75.95
2022-11-06T12:41:32.374Z,75.95
2022-11-06T12:42:36.094Z,76.25
2022-11-06T12:43:43.541Z,76.53
2022-11-06T12:44:47.132Z,76.41
2022-11-06T12:46:10.470Z,76.52
2022-11-06T12:47:25.326Z,76.67
2022-11-06T12:48:57.427Z,76.91
2022-11-06T12:50:20.905Z,76.61
2022-11-06T12:51:32.184Z,76.64
2022-11-06T12:52:53.630Z,76.94
2022-11-06T12:54:10.597Z,76.70
2022-11-06T12:55:24.803Z,76.76
2022-11-06T12:56:35.393Z,76.91
2022-11-06T12:57:42.327Z,76.84
2022-11-06T12:59:09.911Z,76.63
2022-11-06T13:00:17.738Z,76.92
2022-11-06T13:01:32.829Z,76.60
2022-11-06T13:02:50.056Z,76.66
2022-11-06T13:04:14.346Z,76.79
2022-11-06T13:05:21.250Z,76.83
2022-11-06T13:06:34.262Z,76.50
2022-11-06T13:08:02.107Z,76.55
2022-11-06T13:09:14.875Z,76.46
2022-11-06T13:10:32.011Z,76.50
2022-11-06T13:11:42.463Z,76.64
2022-11-06T13:12:54.275Z,76.64
2022-11-06T13:14:08.465Z,76.60
2022-11-06T13:15:23.004Z,76.89
2022-11-06T13:16:34.699Z,76.77
2022-11-06T13:17:45.320Z,76.60
2022-11-06T13:18:54.029Z,76.68
2022-11-06T13:20:03.590Z,76.34
2022-11-06T13:21:11.763Z,76.77
2022-11-06T13:22:26.447Z,76.68
2022-11-06T13:23:34.689Z,76.37
2022-11-06T13:24:46.292Z,76.43
2022-11-06T13:25:58.370Z,76.51
2022-11-06T13:27:10.781Z,76.35
2022-11-06T13:28:29.431Z,76.12
2022-11-06T13:29:31.707Z,76.05
2022-11-06T13:30:38.370Z,75.91
2022-11-06T13:31:44.401Z,75.86
2022-11-06T13:32:54.093Z,75.70
2022-11-06T13:34:01.246Z,75.47
2022-11-06T13:35:05.027Z,75.09
2022-11-06T13:36:09.546Z,74.93
2022-11-06T13:37:16.567Z,74.55
2022-11-06T13:38:24.389Z,74.43
2022-11-06T13:39:32.975Z,73.85
2022-11-06T13:40:40.903Z,73.82
2022-11-06T13:41:45.447Z,73.70
2022-11-06T13:42:51.814Z,73.74
2022-11-06T13:43:59.944Z,73.61
2022-11-06T13:45:02.675Z,73.63
2022-11-06T13:46:13.950Z,73.74
2022-11-06T13:47:22.391Z,73.84
2022-11-06T13:48:37.405Z,73.70
2022-11-06T13:49:49.021Z,73.74
2022-11-06T13:50:59.551Z,73.47
2022-11-06T13:52:04.912Z,73.76
2022-11-06T13:53:18.633Z,73.43
2022-11-06T13:54:37.097Z,73.31
2022-11-06T13:55:54.409Z,73.33
2022-11-06T13:57:19.720Z,73.07
2022-11-06T13:58:49.366Z,72.88
2022-11-06T14:00:13.123Z,72.64
2022-11-06T14:01:24.384Z,73.11
2022-11-06T14:02:49.361Z,73.38
2022-11-06T14:04:53.553Z,73.23
2022-11-06T14:06:01.320Z,73.57
2022-11-06T14:07:06.105Z,73.62
2022-11-06T14:08:16.925Z,73.54
2022-11-06T14:09:22.444Z,73.86
2022-11-06T14:10:34.179Z,74.05
2022-11-06T14:11:40.834Z,74.53
2022-11-06T14:12:48.459Z,74.93
2022-11-06T14:14:01.657Z,75.08
2022-11-06T14:15:15.136Z,75.34
2022-11-06T14:16:29.896Z,75.62
2022-11-06T14:17:32.723Z,75.57
2022-11-06T14:18:36.959Z,75.94
2022-11-06T14:19:40.056Z,76.33
2022-11-06T14:20:43.487Z,76.04
2022-11-06T14:21:48.108Z,76.37
2022-11-06T14:22:52.430Z,76.76
2022-11-06T14:24:04.505Z,76.81